Time;durP1;ratioP1;P1;durP2;ratioP2;P2;SDS_P1;SDS_P2;PMS_P1;PMS_P2;Temp;Humidity;BMP_temperature;BMP_pressure;BME280_temperature;BME280_humidity;BME280_pressure;Samples;Min_cycle;Max_cycle;Signal;HPM_P1;HPM_P2
2022/06/27 00:02:17;;;;;;;0.00;0.00;;;18.90;75.90;;;;;;5050304;28;20037;-69
2022/06/27 00:04:42;;;;;;;0.00;0.00;;;18.90;75.90;;;;;;5049566;28;20052;-69
2022/06/27 00:07:08;;;;;;;0.00;0.00;;;18.80;75.80;;;;;;5050134;28;20048;-69
2022/06/27 00:09:33;;;;;;;0.00;0.00;;;18.90;76.10;;;;;;5048014;28;20060;-69
2022/06/27 00:12:00;;;;;;;0.00;0.00;;;18.90;76.10;;;;;;5049326;28;20057;-69
2022/06/27 00:14:26;;;;;;;0.00;0.00;;;18.80;76.10;;;;;;5049635;28;20055;-69
2022/06/27 00:16:52;;;;;;;0.00;0.00;;;18.90;76.10;;;;;;5049509;28;20053;-69
2022/06/27 00:19:18;;;;;;;0.00;0.00;;;18.80;76.10;;;;;;5049070;28;20037;-69
2022/06/27 00:21:44;;;;;;;0.00;0.00;;;18.80;76.30;;;;;;5049548;28;20049;-69
2022/06/27 00:24:10;;;;;;;0.00;0.00;;;18.80;76.60;;;;;;5049160;28;20040;-69
2022/06/27 00:26:35;;;;;;;0.00;0.00;;;18.80;76.50;;;;;;5049491;28;20039;-69
2022/06/27 00:29:02;;;;;;;0.00;0.00;;;18.80;76.50;;;;;;5050176;28;20123;-69
2022/06/27 00:31:27;;;;;;;0.00;0.00;;;18.70;76.60;;;;;;5049705;28;20048;-69
2022/06/27 00:33:53;;;;;;;0.00;0.00;;;18.70;76.70;;;;;;5049241;28;20041;-69
2022/06/27 00:36:18;;;;;;;0.00;0.00;;;18.70;76.80;;;;;;5049107;28;20048;-69
2022/06/27 00:38:44;;;;;;;0.00;0.00;;;18.70;77.00;;;;;;5049426;28;20041;-69
2022/06/27 00:41:09;;;;;;;0.00;0.00;;;18.80;77.00;;;;;;5048615;28;20041;-69
2022/06/27 00:43:35;;;;;;;0.00;0.00;;;18.70;77.00;;;;;;5049280;28;20048;-69
2022/06/27 00:46:01;;;;;;;0.00;0.00;;;18.80;77.00;;;;;;5048730;28;20045;-69
2022/06/27 00:48:26;;;;;;;0.00;0.00;;;18.70;77.10;;;;;;5049436;28;20126;-69
2022/06/27 00:50:52;;;;;;;0.00;0.00;;;18.60;77.00;;;;;;5048311;28;20040;-69
2022/06/27 00:53:18;;;;;;;0.00;0.00;;;18.60;76.80;;;;;;5049063;28;20049;-69
2022/06/27 00:55:44;;;;;;;0.00;0.00;;;18.60;76.70;;;;;;5048788;28;20127;-69
2022/06/27 00:58:10;;;;;;;0.00;0.00;;;18.60;76.80;;;;;;5048691;28;20041;-69
2022/06/27 01:00:36;;;;;;;0.00;0.00;;;18.60;77.00;;;;;;5048835;28;20498;-69
2022/06/27 01:03:02;;;;;;;0.00;0.00;;;18.60;77.00;;;;;;5049074;28;20052;-69
2022/06/27 01:05:27;;;;;;;0.00;0.00;;;18.60;77.00;;;;;;5049172;28;20413;-69
2022/06/27 01:07:53;;;;;;;0.00;0.00;;;18.60;77.40;;;;;;5049257;28;20049;-69
2022/06/27 01:10:19;;;;;;;0.00;0.00;;;18.60;77.80;;;;;;5048501;28;20049;-69
2022/06/27 01:12:45;;;;;;;0.00;0.00;;;18.60;77.80;;;;;;5049092;28;20056;-69
2022/06/27 01:15:12;;;;;;;0.00;0.00;;;18.60;77.60;;;;;;5048265;28;20049;-69
2022/06/27 01:17:38;;;;;;;0.00;0.00;;;18.50;77.40;;;;;;5048875;28;20516;-69
2022/06/27 01:20:05;;;;;;;0.00;0.00;;;18.60;77.30;;;;;;5048704;28;20822;-69
2022/06/27 01:22:31;;;;;;;0.00;0.00;;;18.50;77.40;;;;;;5050078;28;20073;-69
2022/06/27 01:24:56;;;;;;;0.00;0.00;;;18.50;77.30;;;;;;5053205;28;20508;-69
2022/06/27 01:27:22;;;;;;;0.00;0.00;;;18.50;77.50;;;;;;5052515;28;20045;-69
2022/06/27 01:29:48;;;;;;;0.00;0.00;;;18.50;77.50;;;;;;5052895;28;20410;-69
2022/06/27 01:32:13;;;;;;;0.00;0.00;;;18.50;77.60;;;;;;5052054;28;20072;-69
2022/06/27 01:34:39;;;;;;;0.00;0.00;;;18.50;77.60;;;;;;5051931;28;20547;-69
2022/06/27 01:37:05;;;;;;;0.00;0.00;;;18.60;77.70;;;;;;5051563;28;20040;-69
2022/06/27 01:39:31;;;;;;;0.00;0.00;;;18.50;77.80;;;;;;5052510;28;20048;-69
2022/06/27 01:42:02;;;;;;;0.00;0.00;;;18.50;78.30;;;;;;5052098;28;20102;-69
2022/06/27 01:44:30;;;;;;;0.00;0.00;;;18.50;78.40;;;;;;5052777;28;20057;-69
2022/06/27 01:46:59;;;;;;;0.00;0.00;;;18.50;78.50;;;;;;5051148;28;21160;-69
2022/06/27 01:49:24;;;;;;;0.00;0.00;;;18.50;78.70;;;;;;5052511;28;20048;-69
2022/06/27 01:51:51;;;;;;;0.00;0.00;;;18.50;78.40;;;;;;5052335;28;20053;-69
2022/06/27 01:54:20;;;;;;;0.00;0.00;;;18.40;78.20;;;;;;5052620;28;20045;-69
2022/06/27 01:56:46;;;;;;;0.00;0.00;;;18.50;78.20;;;;;;5052273;28;20053;-69
2022/06/27 01:59:13;;;;;;;0.00;0.00;;;18.50;78.30;;;;;;5051334;28;20391;-69
2022/06/27 02:01:41;;;;;;;0.00;0.00;;;18.50;78.20;;;;;;5052307;28;20076;-69
2022/06/27 02:04:08;;;;;;;0.00;0.00;;;18.50;78.30;;;;;;5052462;28;20045;-69
2022/06/27 02:06:33;;;;;;;0.00;0.00;;;18.50;78.20;;;;;;5052284;28;20059;-69
2022/06/27 02:09:03;;;;;;;0.00;0.00;;;18.50;78.10;;;;;;5051432;28;20040;-69
2022/06/27 02:11:30;;;;;;;0.00;0.00;;;18.50;78.10;;;;;;5051940;28;20049;-69
2022/06/27 02:13:57;;;;;;;0.00;0.00;;;18.50;78.30;;;;;;5052095;28;20707;-69
2022/06/27 02:16:24;;;;;;;0.00;0.00;;;18.50;78.30;;;;;;5051742;28;20426;-69
2022/06/27 02:18:49;;;;;;;0.00;0.00;;;18.50;78.40;;;;;;5050320;28;20585;-69
2022/06/27 02:21:20;;;;;;;0.00;0.00;;;18.50;78.40;;;;;;5051937;28;20084;-69
2022/06/27 02:23:47;;;;;;;0.00;0.00;;;18.50;78.30;;;;;;5052052;28;20079;-69
2022/06/27 02:26:14;;;;;;;0.00;0.00;;;18.50;78.40;;;;;;5051177;28;20055;-69
2022/06/27 02:28:40;;;;;;;0.00;0.00;;;18.50;78.50;;;;;;5051766;28;20095;-69
2022/06/27 02:31:07;;;;;;;0.00;0.00;;;18.50;78.80;;;;;;5052011;28;20500;-69
2022/06/27 02:33:44;;;;;;;0.00;0.00;;;18.60;78.90;;;;;;5050456;28;20516;-69
2022/06/27 02:36:13;;;;;;;0.00;0.00;;;18.60;78.90;;;;;;5051388;28;20067;-69
2022/06/27 02:38:41;;;;;;;0.00;0.00;;;18.60;78.90;;;;;;5051464;28;20044;-69
2022/06/27 02:41:16;;;;;;;0.00;0.00;;;18.60;79.20;;;;;;5051704;28;20138;-69
2022/06/27 02:43:45;;;;;;;0.00;0.00;;;18.50;79.40;;;;;;5051516;28;20037;-69
2022/06/27 02:46:11;;;;;;;0.00;0.00;;;18.30;79.20;;;;;;5050861;28;20063;-69
2022/06/27 02:48:39;;;;;;;0.00;0.00;;;18.20;79.30;;;;;;5051052;28;20452;-69
2022/06/27 02:51:08;;;;;;;0.00;0.00;;;18.20;79.10;;;;;;5051581;28;20514;-69
2022/06/27 02:53:42;;;;;;;0.00;0.00;;;18.20;79.10;;;;;;5049677;28;20091;-69
2022/06/27 02:56:10;;;;;;;0.00;0.00;;;18.30;79.00;;;;;;5051183;28;20040;-69
2022/06/27 02:58:51;;;;;;;0.00;0.00;;;18.30;79.10;;;;;;5050806;28;20037;-69
2022/06/27 03:01:19;;;;;;;0.00;0.00;;;18.30;79.30;;;;;;5051134;28;20075;-69
2022/06/27 03:03:47;;;;;;;0.00;0.00;;;18.30;79.20;;;;;;5051167;28;20057;-69
2022/06/27 03:06:14;;;;;;;0.00;0.00;;;18.30;79.10;;;;;;5051053;28;20049;-69
2022/06/27 03:08:41;;;;;;;0.00;0.00;;;18.30;79.00;;;;;;5049569;28;20045;-69
2022/06/27 03:11:07;;;;;;;0.00;0.00;;;18.40;78.90;;;;;;5050943;28;20065;-69
2022/06/27 03:13:33;;;;;;;0.00;0.00;;;18.30;79.00;;;;;;5050817;28;20045;-69
2022/06/27 03:15:59;;;;;;;0.00;0.00;;;18.30;79.10;;;;;;5050949;28;20445;-69
2022/06/27 03:18:25;;;;;;;0.00;0.00;;;18.40;79.00;;;;;;5050570;28;20045;-69
2022/06/27 03:20:51;;;;;;;0.00;0.00;;;18.40;79.00;;;;;;5050938;28;20083;-69
2022/06/27 03:23:17;;;;;;;0.00;0.00;;;18.40;79.00;;;;;;5050083;28;20390;-69
2022/06/27 03:25:42;;;;;;;0.00;0.00;;;18.40;79.00;;;;;;5051237;28;20567;-69
2022/06/27 03:28:08;;;;;;;0.00;0.00;;;18.40;79.00;;;;;;5050612;28;20059;-69
2022/06/27 03:30:33;;;;;;;0.00;0.00;;;18.40;79.20;;;;;;5049615;28;20041;-69
2022/06/27 03:32:59;;;;;;;0.00;0.00;;;18.50;79.50;;;;;;5050071;28;20073;-69
2022/06/27 03:35:25;;;;;;;0.00;0.00;;;18.50;79.50;;;;;;5050732;28;20045;-69
2022/06/27 03:37:51;;;;;;;0.00;0.00;;;18.40;79.60;;;;;;5050317;28;20124;-69
2022/06/27 03:40:17;;;;;;;0.00;0.00;;;18.50;79.60;;;;;;5050680;28;20051;-69
2022/06/27 03:42:42;;;;;;;0.00;0.00;;;18.50;79.60;;;;;;5050043;28;20452;-69
2022/06/27 03:45:09;;;;;;;0.00;0.00;;;18.50;79.70;;;;;;5049480;28;20056;-69
2022/06/27 03:47:49;;;;;;;0.00;0.00;;;18.50;79.60;;;;;;5061019;28;20041;-69
2022/06/27 03:50:16;;;;;;;0.00;0.00;;;18.50;79.80;;;;;;5034821;28;20835;-69
2022/06/27 03:52:42;;;;;;;0.00;0.00;;;18.50;79.80;;;;;;5050266;28;20115;-69
2022/06/27 03:55:09;;;;;;;0.00;0.00;;;18.50;79.90;;;;;;5049321;28;21015;-70
2022/06/27 03:57:45;;;;;;;0.00;0.00;;;18.50;79.90;;;;;;5050380;28;20077;-69
2022/06/27 04:00:11;;;;;;;0.00;0.00;;;18.50;80.00;;;;;;5049636;28;20040;-70
2022/06/27 04:02:37;;;;;;;0.00;0.00;;;18.50;80.00;;;;;;5050069;28;20127;-69
2022/06/27 04:05:03;;;;;;;0.00;0.00;;;18.50;80.30;;;;;;5049905;28;20501;-69
2022/06/27 04:07:29;;;;;;;0.00;0.00;;;18.50;80.30;;;;;;5049524;28;20052;-69
2022/06/27 04:09:56;;;;;;;0.00;0.00;;;18.50;80.30;;;;;;5049063;28;20124;-69
2022/06/27 04:12:21;;;;;;;0.00;0.00;;;18.60;80.30;;;;;;5049480;28;20044;-69
2022/06/27 04:14:47;;;;;;;0.00;0.00;;;18.60;80.40;;;;;;5048860;28;20103;-69
2022/06/27 04:17:12;;;;;;;0.00;0.00;;;18.60;80.40;;;;;;5047991;28;20086;-69
2022/06/27 04:19:38;;;;;;;0.00;0.00;;;18.50;80.40;;;;;;5048730;28;20036;-69
2022/06/27 04:22:04;;;;;;;0.00;0.00;;;18.60;80.40;;;;;;5048946;28;20044;-69
2022/06/27 04:24:30;;;;;;;0.00;0.00;;;18.60;80.50;;;;;;5049149;28;20417;-72
2022/06/27 04:26:55;;;;;;;0.00;0.00;;;18.60;80.40;;;;;;5049617;28;20049;-69
2022/06/27 04:29:21;;;;;;;0.00;0.00;;;18.50;80.40;;;;;;5049215;28;20127;-69
2022/06/27 04:31:47;;;;;;;0.00;0.00;;;18.60;80.40;;;;;;5049018;28;20040;-74
2022/06/27 04:34:13;;;;;;;0.00;0.00;;;18.60;80.40;;;;;;5049052;28;20067;-69
2022/06/27 04:36:40;;;;;;;0.15;0.15;;;18.60;80.30;;;;;;5049547;28;20399;-69
2022/06/27 04:39:06;;;;;;;0.00;0.00;;;18.60;80.60;;;;;;5049000;28;20102;-69
2022/06/27 04:41:32;;;;;;;0.00;0.00;;;18.60;80.50;;;;;;5048731;28;20444;-69
2022/06/27 04:43:58;;;;;;;0.00;0.00;;;18.60;80.40;;;;;;5048824;28;20048;-68
2022/06/27 04:46:24;;;;;;;0.00;0.00;;;18.70;80.30;;;;;;5047785;28;20033;-69
2022/06/27 04:48:50;;;;;;;0.00;0.00;;;18.70;80.30;;;;;;5048989;28;20037;-68
2022/06/27 04:51:16;;;;;;;0.00;0.00;;;18.70;80.20;;;;;;5049319;28;20508;-69
2022/06/27 04:53:43;;;;;;;0.00;0.00;;;18.80;80.10;;;;;;5048523;28;20132;-69
2022/06/27 04:56:09;;;;;;;0.00;0.00;;;18.80;79.90;;;;;;5047258;28;20059;-68
2022/06/27 04:58:35;;;;;;;0.00;0.00;;;18.70;79.70;;;;;;5047080;28;20457;-68
2022/06/27 05:01:01;;;;;;;0.00;0.00;;;18.70;79.80;;;;;;5048793;28;20052;-69
2022/06/27 05:03:27;;;;;;;0.00;0.00;;;18.80;79.80;;;;;;5049005;28;20405;-68
2022/06/27 05:05:52;;;;;;;0.00;0.00;;;18.80;79.70;;;;;;5045622;28;20045;-68
2022/06/27 05:08:20;;;;;;;0.00;0.00;;;18.80;79.70;;;;;;5037376;28;20116;-69
2022/06/27 05:10:46;;;;;;;0.00;0.00;;;18.90;79.80;;;;;;5040933;28;20103;-69
2022/06/27 05:13:12;;;;;;;0.00;0.00;;;18.90;79.70;;;;;;5042984;28;20053;-69
2022/06/27 05:15:38;;;;;;;0.00;0.00;;;18.90;79.50;;;;;;5033231;28;20173;-69
2022/06/27 05:18:04;;;;;;;0.00;0.00;;;18.90;79.40;;;;;;5041583;28;20165;-68
2022/06/27 05:20:30;;;;;;;0.00;0.00;;;18.90;79.30;;;;;;5043804;28;20056;-69
2022/06/27 05:22:56;;;;;;;0.00;0.00;;;18.90;79.40;;;;;;5037069;28;20049;-69
2022/06/27 05:25:22;;;;;;;0.00;0.00;;;19.00;79.40;;;;;;5047942;28;20092;-69
2022/06/27 05:27:49;;;;;;;0.00;0.00;;;19.00;79.40;;;;;;5048277;28;20077;-69
2022/06/27 05:30:15;;;;;;;0.00;0.00;;;19.10;79.30;;;;;;5047771;28;20511;-69
2022/06/27 05:32:42;;;;;;;0.00;0.00;;;19.10;79.30;;;;;;5048085;28;20545;-69
2022/06/27 05:35:08;;;;;;;0.00;0.00;;;19.10;79.30;;;;;;5047059;28;20743;-69
2022/06/27 05:37:44;;;;;;;0.00;0.00;;;19.20;79.40;;;;;;5048598;28;20055;-69
2022/06/27 05:40:09;;;;;;;0.00;0.00;;;19.20;79.50;;;;;;5048288;28;20064;-69
2022/06/27 05:42:35;;;;;;;0.03;0.03;;;19.30;79.40;;;;;;5048208;28;20037;-71
2022/06/27 05:45:02;;;;;;;0.00;0.00;;;19.30;79.20;;;;;;5047470;28;20095;-71
2022/06/27 05:47:29;;;;;;;0.00;0.00;;;19.30;79.10;;;;;;5048197;28;20039;-69
2022/06/27 05:49:54;;;;;;;0.00;0.00;;;19.30;79.30;;;;;;5043313;28;20045;-69
2022/06/27 05:52:22;;;;;;;0.00;0.00;;;19.40;79.20;;;;;;5047833;28;20099;-69
2022/06/27 05:54:48;;;;;;;0.00;0.00;;;19.50;79.10;;;;;;5046707;28;20045;-69
2022/06/27 05:57:14;;;;;;;0.00;0.00;;;19.50;79.20;;;;;;5046805;28;20041;-70
2022/06/27 05:59:41;;;;;;;0.00;0.00;;;19.60;78.70;;;;;;5048048;28;20040;-70
2022/06/27 06:02:07;;;;;;;0.00;0.00;;;19.60;78.40;;;;;;5048752;28;20048;-70
2022/06/27 06:04:35;;;;;;;0.00;0.00;;;19.60;78.40;;;;;;5048300;28;20074;-70
2022/06/27 06:07:00;;;;;;;0.00;0.00;;;19.60;78.30;;;;;;5048975;28;20048;-69
2022/06/27 06:09:26;;;;;;;0.00;0.00;;;19.60;78.20;;;;;;5048662;28;20049;-69
2022/06/27 06:11:53;;;;;;;0.00;0.00;;;19.60;78.10;;;;;;5050581;28;20060;-69
2022/06/27 06:14:21;;;;;;;0.00;0.00;;;19.60;78.00;;;;;;5050800;28;20041;-68
2022/06/27 06:16:48;;;;;;;0.00;0.00;;;19.70;78.20;;;;;;5051807;28;20052;-70
2022/06/27 06:19:14;;;;;;;0.00;0.00;;;19.80;78.40;;;;;;5051579;28;20068;-70
2022/06/27 06:21:41;;;;;;;0.00;0.00;;;19.80;78.30;;;;;;5051458;28;20048;-70
2022/06/27 06:24:06;;;;;;;0.00;0.00;;;19.90;78.40;;;;;;5051529;28;20409;-69
2022/06/27 06:26:33;;;;;;;0.00;0.00;;;19.90;78.30;;;;;;5050848;28;20052;-70
2022/06/27 06:29:12;;;;;;;0.00;0.00;;;19.80;78.20;;;;;;5051142;28;20051;-69
2022/06/27 06:31:41;;;;;;;0.00;0.00;;;19.80;78.40;;;;;;5051122;28;20504;-69
2022/06/27 06:34:07;;;;;;;0.00;0.00;;;19.80;78.50;;;;;;5049997;28;20052;-69
2022/06/27 06:36:35;;;;;;;0.00;0.00;;;19.80;79.10;;;;;;5050853;28;20045;-69
2022/06/27 06:39:02;;;;;;;0.00;0.00;;;19.90;79.10;;;;;;5050400;28;20103;-69
2022/06/27 06:41:28;;;;;;;0.00;0.00;;;19.80;79.30;;;;;;5046211;28;20045;-68
2022/06/27 06:43:54;;;;;;;0.00;0.00;;;19.80;79.40;;;;;;5028522;28;20041;-68
2022/06/27 06:46:20;;;;;;;0.00;0.00;;;19.80;79.20;;;;;;5012610;28;20055;-69
2022/06/27 06:48:46;;;;;;;0.00;0.00;;;19.90;79.20;;;;;;5024929;28;20052;-68
2022/06/27 06:51:15;;;;;;;0.00;0.00;;;19.90;79.10;;;;;;5029443;28;20565;-69
2022/06/27 06:53:41;;;;;;;0.00;0.00;;;20.00;79.20;;;;;;5039279;28;20041;-69
2022/06/27 06:56:07;;;;;;;0.32;0.32;;;20.00;79.10;;;;;;5050062;28;20052;-69
2022/06/27 06:58:34;;;;;;;0.00;0.00;;;20.00;78.80;;;;;;5047012;28;20051;-69
2022/06/27 07:01:01;;;;;;;0.00;0.00;;;20.00;78.80;;;;;;5038505;28;20052;-69
2022/06/27 07:03:28;;;;;;;0.00;0.00;;;20.00;78.70;;;;;;5048436;28;20041;-69
2022/06/27 07:05:54;;;;;;;0.00;0.00;;;20.00;78.60;;;;;;5049856;28;20045;-69
2022/06/27 07:08:21;;;;;;;0.00;0.00;;;19.90;78.50;;;;;;5036900;28;20422;-69
2022/06/27 07:10:47;;;;;;;0.00;0.00;;;20.00;78.50;;;;;;5050748;28;20049;-69
2022/06/27 07:13:14;;;;;;;0.00;0.00;;;19.90;78.40;;;;;;5049305;28;20806;-69
2022/06/27 07:15:42;;;;;;;0.00;0.00;;;19.90;78.20;;;;;;5065432;28;20072;-69
2022/06/27 07:18:09;;;;;;;0.00;0.00;;;19.90;77.90;;;;;;5049917;28;20127;-71
2022/06/27 07:20:37;;;;;;;0.00;0.00;;;19.90;77.90;;;;;;5050463;28;20071;-70
2022/06/27 07:23:04;;;;;;;0.00;0.00;;;20.00;78.00;;;;;;5041324;28;20052;-70
2022/06/27 07:25:31;;;;;;;0.00;0.00;;;19.90;77.80;;;;;;5050585;28;20041;-67
2022/06/27 07:27:59;;;;;;;0.00;0.00;;;19.90;77.60;;;;;;5048453;28;20532;-68
2022/06/27 07:30:25;;;;;;;0.00;0.00;;;19.90;77.60;;;;;;5048208;28;20129;-67
2022/06/27 07:32:51;;;;;;;0.00;0.00;;;19.90;77.60;;;;;;5049616;28;20048;-68
2022/06/27 07:35:17;;;;;;;0.00;0.00;;;20.00;77.60;;;;;;5049770;28;20560;-67
2022/06/27 07:37:47;;;;;;;0.00;0.00;;;20.00;77.50;;;;;;5050081;28;20448;-67
2022/06/27 07:40:17;;;;;;;0.00;0.00;;;20.00;77.40;;;;;;5050039;28;20037;-67
2022/06/27 07:42:44;;;;;;;0.00;0.00;;;20.00;77.10;;;;;;5047311;28;20064;-67
2022/06/27 07:45:11;;;;;;;0.00;0.00;;;20.00;77.10;;;;;;5049515;28;20072;-67
2022/06/27 07:47:38;;;;;;;0.00;0.00;;;20.00;77.20;;;;;;5050113;28;20044;-67
2022/06/27 07:50:04;;;;;;;0.00;0.00;;;20.00;77.30;;;;;;5049365;28;20040;-67
2022/06/27 07:53:11;;;;;;;0.00;0.00;;;20.00;77.20;;;;;;5049791;28;20144;-67
2022/06/27 07:55:16;;;;;;;0.00;0.00;;;20.10;77.00;;;;;;5049322;28;20045;-67
2022/06/27 07:57:46;;;;;;;0.00;0.00;;;20.10;76.60;;;;;;5049009;28;20105;-67
2022/06/27 08:00:12;;;;;;;0.00;0.00;;;20.10;76.50;;;;;;5048568;28;20033;-68
2022/06/27 08:02:38;;;;;;;0.00;0.00;;;20.10;76.50;;;;;;5035721;28;20494;-68
2022/06/27 08:05:04;;;;;;;0.00;0.00;;;20.10;76.60;;;;;;5049269;28;20040;-67
2022/06/27 08:07:30;;;;;;;0.00;0.00;;;20.10;76.60;;;;;;5048901;28;20068;-66
2022/06/27 08:09:56;;;;;;;0.00;0.00;;;20.10;76.70;;;;;;5048988;28;20076;-68
2022/06/27 08:12:21;;;;;;;0.00;0.00;;;20.10;76.60;;;;;;5048078;28;20581;-68
2022/06/27 08:14:49;;;;;;;0.00;0.00;;;20.10;76.40;;;;;;5048167;28;20152;-67
2022/06/27 08:17:14;;;;;;;0.00;0.00;;;20.20;76.50;;;;;;5049544;28;20037;-68
2022/06/27 08:19:41;;;;;;;0.00;0.00;;;20.10;76.50;;;;;;5047321;28;20068;-67
2022/06/27 08:22:08;;;;;;;0.20;0.20;;;20.20;76.40;;;;;;5048496;28;20091;-67
2022/06/27 08:24:33;;;;;;;0.00;0.00;;;20.10;76.10;;;;;;5049106;28;20879;-70
2022/06/27 08:26:59;;;;;;;0.00;0.00;;;20.20;76.30;;;;;;5047689;28;20128;-69
2022/06/27 08:29:27;;;;;;;0.00;0.00;;;20.20;76.10;;;;;;5049418;28;20489;-70
2022/06/27 08:31:52;;;;;;;0.00;0.00;;;20.30;76.20;;;;;;5047774;28;20048;-69
2022/06/27 08:34:21;;;;;;;0.00;0.00;;;20.30;76.40;;;;;;5049167;28;20044;-71
2022/06/27 08:36:46;;;;;;;0.00;0.00;;;20.30;76.40;;;;;;5048916;28;20037;-67
2022/06/27 08:39:16;;;;;;;0.00;0.00;;;20.30;76.60;;;;;;5048918;28;20056;-68
2022/06/27 08:41:44;;;;;;;0.00;0.00;;;20.30;76.50;;;;;;5048656;28;20045;-67
2022/06/27 08:44:10;;;;;;;0.00;0.00;;;20.40;76.10;;;;;;5043907;28;20103;-68
2022/06/27 08:46:36;;;;;;;0.00;0.00;;;20.40;75.40;;;;;;5049310;28;20356;-68
2022/06/27 08:49:05;;;;;;;0.00;0.00;;;20.50;75.30;;;;;;5048874;28;20099;-66
2022/06/27 08:51:33;;;;;;;0.00;0.00;;;20.60;74.90;;;;;;5048336;28;20037;-67
2022/06/27 08:53:59;;;;;;;0.00;0.00;;;20.70;74.50;;;;;;5048763;28;20049;-68
2022/06/27 08:56:27;;;;;;;0.00;0.00;;;20.80;74.60;;;;;;5048249;28;20045;-62
2022/06/27 08:58:55;;;;;;;0.13;0.13;;;20.90;74.30;;;;;;5048760;28;20521;-61
2022/06/27 09:01:23;;;;;;;0.00;0.00;;;21.00;74.10;;;;;;5048693;28;20459;-62
2022/06/27 09:04:01;;;;;;;0.00;0.00;;;21.00;73.20;;;;;;5047749;28;20128;-62
2022/06/27 09:06:53;;;;;;;0.00;0.00;;;21.00;73.20;;;;;;5047809;28;20055;-62
2022/06/27 09:09:21;;;;;;;0.00;0.00;;;21.10;72.50;;;;;;5048519;28;20123;-61
2022/06/27 09:11:47;;;;;;;0.00;0.00;;;21.10;71.40;;;;;;5047893;28;20088;-61
2022/06/27 09:14:37;;;;;;;0.00;0.00;;;21.10;71.60;;;;;;5048639;28;20076;-61
2022/06/27 09:17:13;;;;;;;0.00;0.00;;;21.10;70.90;;;;;;5047692;28;20052;-61
2022/06/27 09:19:56;;;;;;;0.00;0.00;;;21.20;70.90;;;;;;5047988;28;20041;-62
2022/06/27 09:22:25;;;;;;;0.00;0.00;;;21.30;70.90;;;;;;5040531;28;20052;-61
2022/06/27 09:25:02;;;;;;;0.00;0.00;;;21.30;70.30;;;;;;5038524;28;20071;-74
2022/06/27 09:27:40;;;;;;;0.00;0.00;;;21.30;69.60;;;;;;5047467;28;20037;-71
2022/06/27 09:30:18;;;;;;;0.00;0.00;;;21.30;69.50;;;;;;5048407;28;20084;-68
2022/06/27 09:32:44;;;;;;;0.00;0.00;;;21.20;70.40;;;;;;5048201;28;20044;-69
2022/06/27 09:35:33;;;;;;;0.00;0.00;;;21.30;70.20;;;;;;5047917;28;20049;-67
2022/06/27 09:38:02;;;;;;;0.10;0.10;;;21.40;70.90;;;;;;5047336;28;20052;-69
2022/06/27 09:40:30;;;;;;;0.00;0.00;;;21.40;71.10;;;;;;5046458;28;20039;-69
2022/06/27 09:42:57;;;;;;;0.00;0.00;;;21.30;68.70;;;;;;5043715;28;20064;-68
2022/06/27 09:45:24;;;;;;;0.00;0.00;;;21.40;69.70;;;;;;5048680;28;20110;-68
2022/06/27 09:48:04;;;;;;;0.00;0.00;;;21.40;69.60;;;;;;5050846;28;20417;-68
2022/06/27 09:50:33;;;;;;;0.00;0.00;;;21.50;69.80;;;;;;5045540;28;20567;-68
2022/06/27 09:53:00;;;;;;;0.00;0.00;;;21.40;68.60;;;;;;5043563;28;20088;-69
2022/06/27 09:55:26;;;;;;;0.00;0.00;;;21.30;69.90;;;;;;5052137;28;20059;-68
2022/06/27 09:57:55;;;;;;;0.00;0.00;;;21.30;69.60;;;;;;5045069;28;20890;-67
2022/06/27 10:00:22;;;;;;;0.00;0.00;;;21.40;69.80;;;;;;5049035;28;20063;-67
2022/06/27 10:02:49;;;;;;;0.00;0.00;;;21.40;68.30;;;;;;5050887;28;20048;-67
2022/06/27 10:05:16;;;;;;;0.00;0.00;;;21.50;69.60;;;;;;5049254;28;20108;-68
2022/06/27 10:08:12;;;;;;;0.00;0.00;;;21.50;69.50;;;;;;5047012;28;20060;-68
2022/06/27 10:11:09;;;;;;;0.00;0.00;;;21.60;69.60;;;;;;5032799;28;20049;-67
2022/06/27 10:13:42;;;;;;;0.00;0.00;;;21.60;68.80;;;;;;5049028;28;20041;-67
2022/06/27 10:16:15;;;;;;;0.00;0.00;;;21.60;68.90;;;;;;5045645;28;20049;-65
2022/06/27 10:19:00;;;;;;;0.00;0.00;;;21.60;68.80;;;;;;5048775;28;20049;-66
2022/06/27 10:21:35;;;;;;;0.00;0.00;;;21.60;68.00;;;;;;5047228;28;20041;-66
2022/06/27 10:24:19;;;;;;;0.00;0.00;;;21.60;67.10;;;;;;5050272;28;20055;-66
2022/06/27 10:26:50;;;;;;;0.47;0.47;;;21.60;67.60;;;;;;5050529;28;20083;-66
2022/06/27 10:29:34;;;;;;;0.00;0.00;;;21.70;67.80;;;;;;5051173;28;20843;-66
2022/06/27 10:32:01;;;;;;;0.20;0.20;;;21.60;66.80;;;;;;5043685;28;20059;-66
2022/06/27 10:34:48;;;;;;;0.00;0.00;;;21.70;66.50;;;;;;5046419;28;20083;-66
2022/06/27 10:37:19;;;;;;;0.00;0.00;;;21.70;67.60;;;;;;5046743;28;20604;-67
2022/06/27 10:39:45;;;;;;;0.00;0.00;;;21.80;68.00;;;;;;5050161;28;20040;-68
2022/06/27 10:42:49;;;;;;;0.00;0.00;;;21.80;67.10;;;;;;5050994;28;20048;-70
2022/06/27 10:45:20;;;;;;;0.00;0.00;;;21.80;66.30;;;;;;5050746;28;20037;-67
2022/06/27 10:47:46;;;;;;;;;;;21.80;66.80;;;;;;5048657;28;20375;-68
2022/06/27 10:50:17;;;;;;;0.00;0.00;;;21.90;66.70;;;;;;5050360;28;19921;-67
2022/06/27 10:52:43;;;;;;;0.00;0.00;;;21.90;66.50;;;;;;5050485;28;20383;-68
2022/06/27 10:55:26;;;;;;;0.00;0.00;;;21.80;65.90;;;;;;5047363;28;20111;-68
2022/06/27 10:57:54;;;;;;;0.00;0.00;;;21.80;66.50;;;;;;5049937;28;20065;-68
2022/06/27 11:00:39;;;;;;;0.00;0.00;;;21.70;66.40;;;;;;5050785;28;20037;-68
2022/06/27 11:03:05;;;;;;;0.00;0.00;;;21.60;66.40;;;;;;5049661;28;20041;-67
2022/06/27 11:05:52;;;;;;;0.00;0.00;;;21.70;67.40;;;;;;5050624;28;21019;-67
2022/06/27 11:08:22;;;;;;;0.00;0.00;;;21.70;67.20;;;;;;5050834;28;20370;-68
2022/06/27 11:10:48;;;;;;;0.00;0.00;;;21.70;67.30;;;;;;5049923;28;20137;-69
2022/06/27 11:13:43;;;;;;;0.00;0.00;;;21.70;66.70;;;;;;5050740;28;20116;-69
2022/06/27 11:16:13;;;;;;;0.98;0.90;;;21.70;67.40;;;;;;5049784;28;20140;-70
2022/06/27 11:18:43;;;;;;;0.00;0.00;;;21.70;66.80;;;;;;5050204;28;20087;-69
2022/06/27 11:21:11;;;;;;;0.00;0.00;;;21.80;66.60;;;;;;5049233;28;20045;-67
2022/06/27 11:23:51;;;;;;;0.00;0.00;;;21.80;66.80;;;;;;5050403;28;20033;-67
2022/06/27 11:26:18;;;;;;;0.00;0.00;;;21.80;67.40;;;;;;5050054;28;20099;-67
2022/06/27 11:34:12;;;;;;;0.00;0.00;;;22.00;66.70;;;;;;5050333;28;20041;-67
2022/06/27 11:36:39;;;;;;;0.00;0.00;;;22.00;66.50;;;;;;5050032;28;20052;-66
2022/06/27 11:39:05;;;;;;;0.00;0.00;;;22.00;66.10;;;;;;5048490;28;20120;-67
2022/06/27 11:41:31;;;;;;;0.00;0.00;;;22.10;66.50;;;;;;5050212;28;20041;-67
2022/06/27 11:44:00;;;;;;;0.00;0.00;;;22.20;66.50;;;;;;5048777;28;20446;-67
2022/06/27 11:46:45;;;;;;;0.00;0.00;;;22.30;65.90;;;;;;5050036;28;20052;-66
2022/06/27 11:49:12;;;;;;;0.00;0.00;;;22.40;66.40;;;;;;5048598;28;20073;-71
2022/06/27 11:51:42;;;;;;;0.00;0.00;;;22.40;65.40;;;;;;5049652;28;20095;-67
2022/06/27 11:54:14;;;;;;;0.00;0.00;;;22.40;64.20;;;;;;5065285;28;20116;-67
2022/06/27 11:56:47;;;;;;;0.00;0.00;;;22.40;64.90;;;;;;5049707;28;20041;-67
2022/06/27 11:59:15;;;;;;;0.00;0.00;;;22.30;63.20;;;;;;5049389;28;20067;-67
2022/06/27 12:01:52;;;;;;;0.00;0.00;;;22.20;64.60;;;;;;5049631;28;20121;-67
2022/06/27 12:04:20;;;;;;;0.00;0.00;;;22.10;63.80;;;;;;5049129;28;20039;-68
2022/06/27 12:06:52;;;;;;;0.25;0.20;;;22.10;63.70;;;;;;5048979;28;20071;-67
2022/06/27 12:09:19;;;;;;;0.00;0.00;;;22.00;63.20;;;;;;5049839;28;20056;-67
2022/06/27 12:11:56;;;;;;;0.00;0.00;;;22.00;64.10;;;;;;5049584;28;20057;-67
2022/06/27 12:14:24;;;;;;;0.00;0.00;;;22.10;63.50;;;;;;5043356;28;20054;-69
2022/06/27 12:16:53;;;;;;;0.00;0.00;;;22.10;63.70;;;;;;5042225;28;20064;-69
2022/06/27 12:19:18;;;;;;;0.00;0.00;;;22.10;63.50;;;;;;5040973;28;20071;-68
2022/06/27 12:21:45;;;;;;;0.00;0.00;;;22.20;63.50;;;;;;5049658;28;20041;-69
2022/06/27 12:24:11;;;;;;;0.00;0.00;;;22.30;63.70;;;;;;5052782;28;20037;-68
2022/06/27 12:26:37;;;;;;;0.00;0.00;;;22.20;63.60;;;;;;5049154;28;20505;-70
2022/06/27 12:29:05;;;;;;;0.00;0.00;;;22.10;62.50;;;;;;5037209;28;20041;-69
2022/06/27 12:31:33;;;;;;;0.00;0.00;;;22.00;63.70;;;;;;5033318;28;20051;-69
2022/06/27 12:33:59;;;;;;;0.00;0.00;;;22.00;63.80;;;;;;5044610;28;20090;-69
2022/06/27 12:36:24;;;;;;;0.00;0.00;;;22.00;64.40;;;;;;5047975;28;20045;-69
2022/06/27 12:38:50;;;;;;;0.00;0.00;;;22.10;65.00;;;;;;5047140;28;20511;-69
2022/06/27 12:41:16;;;;;;;0.20;0.20;;;22.10;64.60;;;;;;5047521;28;20048;-69
2022/06/27 12:43:43;;;;;;;0.00;0.00;;;22.10;64.80;;;;;;5047987;28;20033;-69
2022/06/27 12:46:08;;;;;;;0.22;0.20;;;22.10;64.10;;;;;;5048885;28;20067;-69
2022/06/27 12:48:37;;;;;;;0.00;0.00;;;22.10;63.30;;;;;;5047644;28;20793;-68
2022/06/27 12:51:02;;;;;;;0.00;0.00;;;22.10;63.60;;;;;;5046924;28;20056;-68
2022/06/27 12:53:28;;;;;;;0.00;0.00;;;22.10;63.40;;;;;;5044653;28;20601;-69
2022/06/27 12:55:53;;;;;;;0.28;0.17;;;22.10;62.20;;;;;;5046717;28;20099;-69
2022/06/27 12:58:20;;;;;;;0.00;0.00;;;22.10;63.10;;;;;;5061401;28;20044;-68
2022/06/27 13:00:46;;;;;;;0.00;0.00;;;22.10;64.30;;;;;;5030706;28;20057;-68